sensor_id;sensor_type;location;lat;lon;timestamp;P1;durP1;ratioP1;P2;durP2;ratioP2
17566;SDS011;8901;52.088;5.084;2022-10-22T00:00:04;6.27;;;5.67;;
17566;SDS011;8901;52.088;5.084;2022-10-22T00:02:32;6.67;;;6.00;;
17566;SDS011;8901;52.088;5.084;2022-10-22T00:04:59;6.57;;;5.20;;
17566;SDS011;8901;52.088;5.084;2022-10-22T00:07:27;5.70;;;5.20;;
17566;SDS011;8901;52.088;5.084;2022-10-22T00:09:54;7.87;;;5.40;;
17566;SDS011;8901;52.088;5.084;2022-10-22T00:12:22;9.47;;;5.53;;
17566;SDS011;8901;52.088;5.084;2022-10-22T00:14:50;7.23;;;5.77;;
17566;SDS011;8901;52.088;5.084;2022-10-22T00:17:17;8.70;;;5.67;;
17566;SDS011;8901;52.088;5.084;2022-10-22T00:19:44;5.93;;;5.33;;
17566;SDS011;8901;52.088;5.084;2022-10-22T00:22:11;6.23;;;4.70;;
17566;SDS011;8901;52.088;5.084;2022-10-22T00:24:39;6.00;;;4.90;;
17566;SDS011;8901;52.088;5.084;2022-10-22T00:27:06;5.73;;;4.93;;
17566;SDS011;8901;52.088;5.084;2022-10-22T00:29:35;7.53;;;5.10;;
17566;SDS011;8901;52.088;5.084;2022-10-22T00:32:02;6.73;;;6.13;;
17566;SDS011;8901;52.088;5.084;2022-10-22T00:34:29;5.30;;;4.90;;
17566;SDS011;8901;52.088;5.084;2022-10-22T00:36:57;8.13;;;5.43;;
17566;SDS011;8901;52.088;5.084;2022-10-22T00:39:24;6.57;;;4.90;;
17566;SDS011;8901;52.088;5.084;2022-10-22T00:41:52;7.77;;;5.47;;
17566;SDS011;8901;52.088;5.084;2022-10-22T00:47:08;7.03;;;5.57;;
17566;SDS011;8901;52.088;5.084;2022-10-22T00:49:35;6.60;;;5.40;;
17566;SDS011;8901;52.088;5.084;2022-10-22T00:52:02;7.37;;;5.50;;
17566;SDS011;8901;52.088;5.084;2022-10-22T00:54:29;6.60;;;5.20;;
17566;SDS011;8901;52.088;5.084;2022-10-22T00:56:56;7.20;;;5.07;;
17566;SDS011;8901;52.088;5.084;2022-10-22T00:59:23;5.40;;;4.90;;
17566;SDS011;8901;52.088;5.084;2022-10-22T01:01:50;6.10;;;5.17;;
17566;SDS011;8901;52.088;5.084;2022-10-22T01:04:19;7.20;;;5.17;;
17566;SDS011;8901;52.088;5.084;2022-10-22T01:06:46;9.20;;;5.37;;
17566;SDS011;8901;52.088;5.084;2022-10-22T01:09:18;7.37;;;5.10;;
17566;SDS011;8901;52.088;5.084;2022-10-22T01:11:50;6.07;;;5.30;;
17566;SDS011;8901;52.088;5.084;2022-10-22T01:14:21;8.67;;;5.87;;
17566;SDS011;8901;52.088;5.084;2022-10-22T01:16:52;5.70;;;5.07;;
17566;SDS011;8901;52.088;5.084;2022-10-22T01:22:16;7.37;;;5.23;;
17566;SDS011;8901;52.088;5.084;2022-10-22T01:24:48;8.93;;;5.43;;
17566;SDS011;8901;52.088;5.084;2022-10-22T01:27:21;8.73;;;4.97;;
17566;SDS011;8901;52.088;5.084;2022-10-22T01:29:51;6.47;;;5.60;;
17566;SDS011;8901;52.088;5.084;2022-10-22T01:32:19;7.30;;;5.83;;
17566;SDS011;8901;52.088;5.084;2022-10-22T01:34:49;9.53;;;5.50;;
17566;SDS011;8901;52.088;5.084;2022-10-22T01:37:19;6.87;;;5.60;;
17566;SDS011;8901;52.088;5.084;2022-10-22T01:39:47;7.70;;;5.03;;
17566;SDS011;8901;52.088;5.084;2022-10-22T01:42:15;10.73;;;5.90;;
17566;SDS011;8901;52.088;5.084;2022-10-22T01:44:44;9.03;;;5.43;;
17566;SDS011;8901;52.088;5.084;2022-10-22T01:47:16;7.67;;;5.30;;
17566;SDS011;8901;52.088;5.084;2022-10-22T01:49:52;7.83;;;4.97;;
17566;SDS011;8901;52.088;5.084;2022-10-22T01:52:30;10.30;;;6.20;;
17566;SDS011;8901;52.088;5.084;2022-10-22T01:55:02;7.77;;;6.37;;
17566;SDS011;8901;52.088;5.084;2022-10-22T01:57:35;5.77;;;5.17;;
17566;SDS011;8901;52.088;5.084;2022-10-22T02:00:08;7.00;;;5.60;;
17566;SDS011;8901;52.088;5.084;2022-10-22T02:02:39;8.40;;;5.67;;
17566;SDS011;8901;52.088;5.084;2022-10-22T02:05:08;8.27;;;5.33;;
17566;SDS011;8901;52.088;5.084;2022-10-22T02:07:38;8.63;;;5.90;;
17566;SDS011;8901;52.088;5.084;2022-10-22T02:10:07;6.70;;;5.93;;
17566;SDS011;8901;52.088;5.084;2022-10-22T02:12:35;6.87;;;6.20;;
17566;SDS011;8901;52.088;5.084;2022-10-22T02:15:03;6.47;;;5.30;;
17566;SDS011;8901;52.088;5.084;2022-10-22T02:17:31;6.47;;;5.37;;
17566;SDS011;8901;52.088;5.084;2022-10-22T02:20:02;7.83;;;5.93;;
17566;SDS011;8901;52.088;5.084;2022-10-22T02:22:31;8.67;;;5.93;;
17566;SDS011;8901;52.088;5.084;2022-10-22T02:25:01;9.23;;;5.70;;
17566;SDS011;8901;52.088;5.084;2022-10-22T02:27:29;7.80;;;6.17;;
17566;SDS011;8901;52.088;5.084;2022-10-22T02:29:58;7.63;;;5.93;;
17566;SDS011;8901;52.088;5.084;2022-10-22T02:32:37;10.20;;;5.87;;
17566;SDS011;8901;52.088;5.084;2022-10-22T02:37:45;6.53;;;5.87;;
17566;SDS011;8901;52.088;5.084;2022-10-22T02:52:01;8.97;;;6.07;;
17566;SDS011;8901;52.088;5.084;2022-10-22T02:54:31;11.70;;;5.97;;
17566;SDS011;8901;52.088;5.084;2022-10-22T02:56:59;6.77;;;5.53;;
17566;SDS011;8901;52.088;5.084;2022-10-22T02:59:26;6.67;;;5.60;;
17566;SDS011;8901;52.088;5.084;2022-10-22T03:07:43;6.13;;;5.53;;
17566;SDS011;8901;52.088;5.084;2022-10-22T03:12:56;6.53;;;5.40;;
17566;SDS011;8901;52.088;5.084;2022-10-22T03:15:23;7.30;;;5.73;;
17566;SDS011;8901;52.088;5.084;2022-10-22T03:20:30;8.23;;;5.77;;
17566;SDS011;8901;52.088;5.084;2022-10-22T03:22:58;9.00;;;5.67;;
17566;SDS011;8901;52.088;5.084;2022-10-22T03:25:26;12.00;;;5.97;;
17566;SDS011;8901;52.088;5.084;2022-10-22T03:27:56;6.67;;;5.70;;
17566;SDS011;8901;52.088;5.084;2022-10-22T03:30:27;7.83;;;5.13;;
17566;SDS011;8901;52.088;5.084;2022-10-22T03:32:54;7.40;;;5.73;;
17566;SDS011;8901;52.088;5.084;2022-10-22T03:35:21;8.03;;;5.60;;
17566;SDS011;8901;52.088;5.084;2022-10-22T03:37:48;6.87;;;5.43;;
17566;SDS011;8901;52.088;5.084;2022-10-22T03:40:23;6.03;;;5.40;;
17566;SDS011;8901;52.088;5.084;2022-10-22T03:42:50;7.17;;;5.17;;
17566;SDS011;8901;52.088;5.084;2022-10-22T03:45:18;9.73;;;5.70;;
17566;SDS011;8901;52.088;5.084;2022-10-22T03:47:45;8.37;;;5.50;;
17566;SDS011;8901;52.088;5.084;2022-10-22T03:50:12;7.53;;;5.83;;
17566;SDS011;8901;52.088;5.084;2022-10-22T03:52:45;8.07;;;5.70;;
17566;SDS011;8901;52.088;5.084;2022-10-22T03:55:12;6.93;;;5.37;;
17566;SDS011;8901;52.088;5.084;2022-10-22T03:57:39;7.77;;;5.43;;
17566;SDS011;8901;52.088;5.084;2022-10-22T04:00:13;6.50;;;5.30;;
17566;SDS011;8901;52.088;5.084;2022-10-22T04:02:41;7.47;;;5.60;;
17566;SDS011;8901;52.088;5.084;2022-10-22T04:05:08;6.63;;;5.50;;
17566;SDS011;8901;52.088;5.084;2022-10-22T04:07:36;12.30;;;5.40;;
17566;SDS011;8901;52.088;5.084;2022-10-22T04:10:03;9.00;;;5.67;;
17566;SDS011;8901;52.088;5.084;2022-10-22T04:12:30;7.07;;;5.90;;
17566;SDS011;8901;52.088;5.084;2022-10-22T04:14:57;13.33;;;6.70;;
17566;SDS011;8901;52.088;5.084;2022-10-22T04:17:24;10.40;;;6.03;;
17566;SDS011;8901;52.088;5.084;2022-10-22T04:19:53;8.23;;;5.33;;
17566;SDS011;8901;52.088;5.084;2022-10-22T04:22:20;8.47;;;5.70;;
17566;SDS011;8901;52.088;5.084;2022-10-22T04:24:47;8.97;;;6.20;;
17566;SDS011;8901;52.088;5.084;2022-10-22T04:27:14;8.03;;;5.90;;
17566;SDS011;8901;52.088;5.084;2022-10-22T04:29:41;11.17;;;5.73;;
17566;SDS011;8901;52.088;5.084;2022-10-22T04:32:08;8.03;;;5.33;;
17566;SDS011;8901;52.088;5.084;2022-10-22T04:37:29;13.93;;;5.10;;
17566;SDS011;8901;52.088;5.084;2022-10-22T04:40:11;11.30;;;5.40;;
17566;SDS011;8901;52.088;5.084;2022-10-22T04:42:38;11.77;;;6.20;;
17566;SDS011;8901;52.088;5.084;2022-10-22T04:45:06;7.73;;;6.10;;
17566;SDS011;8901;52.088;5.084;2022-10-22T04:47:33;9.23;;;5.50;;
17566;SDS011;8901;52.088;5.084;2022-10-22T04:50:00;7.67;;;5.13;;
17566;SDS011;8901;52.088;5.084;2022-10-22T04:52:28;6.20;;;5.30;;
17566;SDS011;8901;52.088;5.084;2022-10-22T04:54:56;5.83;;;5.00;;
17566;SDS011;8901;52.088;5.084;2022-10-22T04:57:24;10.10;;;5.37;;
17566;SDS011;8901;52.088;5.084;2022-10-22T04:59:55;5.73;;;5.10;;
17566;SDS011;8901;52.088;5.084;2022-10-22T05:02:22;6.50;;;5.30;;
17566;SDS011;8901;52.088;5.084;2022-10-22T05:04:49;12.37;;;5.33;;
17566;SDS011;8901;52.088;5.084;2022-10-22T05:07:16;7.97;;;5.20;;
17566;SDS011;8901;52.088;5.084;2022-10-22T05:09:45;9.13;;;5.50;;
17566;SDS011;8901;52.088;5.084;2022-10-22T05:12:12;9.07;;;5.20;;
17566;SDS011;8901;52.088;5.084;2022-10-22T05:14:39;10.80;;;5.47;;
17566;SDS011;8901;52.088;5.084;2022-10-22T05:17:06;8.27;;;4.87;;
17566;SDS011;8901;52.088;5.084;2022-10-22T05:19:33;8.33;;;5.40;;
17566;SDS011;8901;52.088;5.084;2022-10-22T05:22:01;8.97;;;5.50;;
17566;SDS011;8901;52.088;5.084;2022-10-22T05:24:29;8.90;;;5.90;;
17566;SDS011;8901;52.088;5.084;2022-10-22T05:26:58;9.17;;;5.07;;
17566;SDS011;8901;52.088;5.084;2022-10-22T05:29:26;10.43;;;5.27;;
17566;SDS011;8901;52.088;5.084;2022-10-22T05:31:53;6.77;;;5.07;;
17566;SDS011;8901;52.088;5.084;2022-10-22T05:34:20;8.87;;;6.03;;
17566;SDS011;8901;52.088;5.084;2022-10-22T05:36:47;7.67;;;5.43;;
17566;SDS011;8901;52.088;5.084;2022-10-22T05:39:14;9.60;;;5.73;;
17566;SDS011;8901;52.088;5.084;2022-10-22T05:41:41;6.77;;;5.27;;
17566;SDS011;8901;52.088;5.084;2022-10-22T05:44:10;8.03;;;5.70;;
17566;SDS011;8901;52.088;5.084;2022-10-22T05:46:37;9.40;;;5.60;;
17566;SDS011;8901;52.088;5.084;2022-10-22T05:49:05;7.90;;;5.60;;
17566;SDS011;8901;52.088;5.084;2022-10-22T05:51:33;8.60;;;5.27;;
17566;SDS011;8901;52.088;5.084;2022-10-22T05:54:01;5.97;;;5.37;;
17566;SDS011;8901;52.088;5.084;2022-10-22T05:56:29;8.07;;;5.20;;
17566;SDS011;8901;52.088;5.084;2022-10-22T05:58:57;11.17;;;6.00;;
17566;SDS011;8901;52.088;5.084;2022-10-22T06:01:26;7.03;;;5.60;;
17566;SDS011;8901;52.088;5.084;2022-10-22T06:03:54;7.33;;;5.50;;
17566;SDS011;8901;52.088;5.084;2022-10-22T06:06:22;11.23;;;5.70;;
17566;SDS011;8901;52.088;5.084;2022-10-22T06:08:51;7.50;;;5.50;;
17566;SDS011;8901;52.088;5.084;2022-10-22T06:11:20;10.27;;;5.90;;
17566;SDS011;8901;52.088;5.084;2022-10-22T06:13:48;9.47;;;4.80;;
17566;SDS011;8901;52.088;5.084;2022-10-22T06:16:20;7.23;;;5.33;;
17566;SDS011;8901;52.088;5.084;2022-10-22T06:18:49;7.13;;;5.03;;
17566;SDS011;8901;52.088;5.084;2022-10-22T06:21:16;6.40;;;4.70;;
17566;SDS011;8901;52.088;5.084;2022-10-22T06:23:44;8.90;;;6.00;;
17566;SDS011;8901;52.088;5.084;2022-10-22T06:26:11;10.23;;;5.77;;
17566;SDS011;8901;52.088;5.084;2022-10-22T06:28:39;7.67;;;5.27;;
17566;SDS011;8901;52.088;5.084;2022-10-22T06:31:06;6.60;;;4.90;;
17566;SDS011;8901;52.088;5.084;2022-10-22T06:33:34;6.13;;;5.47;;
17566;SDS011;8901;52.088;5.084;2022-10-22T06:36:09;10.73;;;6.13;;
17566;SDS011;8901;52.088;5.084;2022-10-22T06:38:38;11.20;;;6.27;;
17566;SDS011;8901;52.088;5.084;2022-10-22T06:41:21;8.30;;;5.33;;
17566;SDS011;8901;52.088;5.084;2022-10-22T06:43:48;9.87;;;4.87;;
17566;SDS011;8901;52.088;5.084;2022-10-22T06:46:16;9.33;;;5.90;;
17566;SDS011;8901;52.088;5.084;2022-10-22T06:48:47;9.37;;;4.77;;
17566;SDS011;8901;52.088;5.084;2022-10-22T06:51:15;7.20;;;5.10;;
17566;SDS011;8901;52.088;5.084;2022-10-22T06:53:42;8.50;;;5.50;;
17566;SDS011;8901;52.088;5.084;2022-10-22T06:56:10;8.17;;;4.97;;
17566;SDS011;8901;52.088;5.084;2022-10-22T06:58:38;9.87;;;6.10;;
17566;SDS011;8901;52.088;5.084;2022-10-22T07:01:06;7.53;;;5.23;;
17566;SDS011;8901;52.088;5.084;2022-10-22T07:03:33;10.93;;;5.63;;
17566;SDS011;8901;52.088;5.084;2022-10-22T07:06:01;8.23;;;5.00;;
17566;SDS011;8901;52.088;5.084;2022-10-22T07:08:29;6.07;;;4.90;;
17566;SDS011;8901;52.088;5.084;2022-10-22T07:11:03;8.70;;;5.53;;
17566;SDS011;8901;52.088;5.084;2022-10-22T07:13:31;6.73;;;5.73;;
17566;SDS011;8901;52.088;5.084;2022-10-22T07:15:58;8.80;;;5.30;;
17566;SDS011;8901;52.088;5.084;2022-10-22T07:18:25;8.07;;;5.10;;
17566;SDS011;8901;52.088;5.084;2022-10-22T07:20:52;9.23;;;5.40;;
17566;SDS011;8901;52.088;5.084;2022-10-22T07:23:19;11.30;;;5.50;;
17566;SDS011;8901;52.088;5.084;2022-10-22T07:25:48;8.23;;;5.73;;
17566;SDS011;8901;52.088;5.084;2022-10-22T07:28:15;9.70;;;5.30;;
17566;SDS011;8901;52.088;5.084;2022-10-22T07:30:42;7.37;;;5.63;;
17566;SDS011;8901;52.088;5.084;2022-10-22T07:33:10;14.87;;;5.87;;
17566;SDS011;8901;52.088;5.084;2022-10-22T07:35:37;10.70;;;5.00;;
17566;SDS011;8901;52.088;5.084;2022-10-22T07:38:05;10.53;;;5.17;;
17566;SDS011;8901;52.088;5.084;2022-10-22T07:40:32;9.30;;;5.43;;
17566;SDS011;8901;52.088;5.084;2022-10-22T07:43:01;11.83;;;5.53;;
17566;SDS011;8901;52.088;5.084;2022-10-22T07:45:28;10.80;;;4.73;;
17566;SDS011;8901;52.088;5.084;2022-10-22T07:47:56;10.17;;;5.30;;
17566;SDS011;8901;52.088;5.084;2022-10-22T07:50:23;9.00;;;5.27;;
17566;SDS011;8901;52.088;5.084;2022-10-22T07:52:50;11.93;;;5.10;;
17566;SDS011;8901;52.088;5.084;2022-10-22T07:55:18;6.00;;;5.03;;
17566;SDS011;8901;52.088;5.084;2022-10-22T07:57:45;9.00;;;5.23;;
17566;SDS011;8901;52.088;5.084;2022-10-22T08:03:05;9.73;;;4.80;;
17566;SDS011;8901;52.088;5.084;2022-10-22T08:05:33;10.63;;;5.03;;
17566;SDS011;8901;52.088;5.084;2022-10-22T08:08:00;14.07;;;5.30;;
17566;SDS011;8901;52.088;5.084;2022-10-22T08:10:27;10.20;;;5.13;;
17566;SDS011;8901;52.088;5.084;2022-10-22T08:12:55;9.70;;;4.90;;
17566;SDS011;8901;52.088;5.084;2022-10-22T08:15:22;8.10;;;4.97;;
17566;SDS011;8901;52.088;5.084;2022-10-22T08:17:51;8.93;;;4.83;;
17566;SDS011;8901;52.088;5.084;2022-10-22T08:20:19;10.10;;;5.30;;
17566;SDS011;8901;52.088;5.084;2022-10-22T08:22:47;8.63;;;4.90;;
17566;SDS011;8901;52.088;5.084;2022-10-22T08:25:14;7.97;;;4.80;;
17566;SDS011;8901;52.088;5.084;2022-10-22T08:27:42;9.03;;;4.73;;
17566;SDS011;8901;52.088;5.084;2022-10-22T08:30:10;9.20;;;4.77;;
17566;SDS011;8901;52.088;5.084;2022-10-22T08:32:37;9.53;;;4.40;;
17566;SDS011;8901;52.088;5.084;2022-10-22T08:35:04;10.23;;;5.33;;
17566;SDS011;8901;52.088;5.084;2022-10-22T08:37:33;10.23;;;5.23;;
17566;SDS011;8901;52.088;5.084;2022-10-22T08:40:00;8.20;;;4.83;;
17566;SDS011;8901;52.088;5.084;2022-10-22T08:42:32;9.13;;;4.93;;
17566;SDS011;8901;52.088;5.084;2022-10-22T08:45:07;7.53;;;4.80;;
17566;SDS011;8901;52.088;5.084;2022-10-22T08:47:45;10.50;;;4.53;;
17566;SDS011;8901;52.088;5.084;2022-10-22T08:50:16;9.27;;;4.73;;
17566;SDS011;8901;52.088;5.084;2022-10-22T08:52:47;10.70;;;4.90;;
17566;SDS011;8901;52.088;5.084;2022-10-22T08:55:15;10.63;;;6.20;;
17566;SDS011;8901;52.088;5.084;2022-10-22T08:57:45;10.17;;;4.83;;
17566;SDS011;8901;52.088;5.084;2022-10-22T09:00:19;9.37;;;5.07;;
17566;SDS011;8901;52.088;5.084;2022-10-22T09:02:51;8.70;;;4.60;;
17566;SDS011;8901;52.088;5.084;2022-10-22T09:05:27;9.77;;;5.70;;
17566;SDS011;8901;52.088;5.084;2022-10-22T09:07:59;8.10;;;4.57;;
17566;SDS011;8901;52.088;5.084;2022-10-22T09:10:28;13.57;;;5.67;;
17566;SDS011;8901;52.088;5.084;2022-10-22T09:12:55;12.33;;;5.10;;
17566;SDS011;8901;52.088;5.084;2022-10-22T09:15:22;8.07;;;4.90;;
17566;SDS011;8901;52.088;5.084;2022-10-22T09:17:57;7.63;;;5.30;;
17566;SDS011;8901;52.088;5.084;2022-10-22T09:20:26;7.20;;;4.60;;
17566;SDS011;8901;52.088;5.084;2022-10-22T09:22:56;9.63;;;4.87;;
17566;SDS011;8901;52.088;5.084;2022-10-22T09:25:28;7.33;;;4.73;;
17566;SDS011;8901;52.088;5.084;2022-10-22T09:27:56;10.93;;;4.90;;
17566;SDS011;8901;52.088;5.084;2022-10-22T09:30:25;8.00;;;4.97;;
17566;SDS011;8901;52.088;5.084;2022-10-22T09:32:54;8.83;;;5.10;;
17566;SDS011;8901;52.088;5.084;2022-10-22T09:35:25;9.83;;;4.90;;
17566;SDS011;8901;52.088;5.084;2022-10-22T09:37:53;8.60;;;4.77;;
17566;SDS011;8901;52.088;5.084;2022-10-22T09:40:21;9.93;;;5.47;;
17566;SDS011;8901;52.088;5.084;2022-10-22T09:42:50;7.90;;;4.87;;
17566;SDS011;8901;52.088;5.084;2022-10-22T09:45:18;10.47;;;5.00;;
17566;SDS011;8901;52.088;5.084;2022-10-22T09:47:46;9.97;;;5.13;;
17566;SDS011;8901;52.088;5.084;2022-10-22T09:50:20;7.77;;;4.80;;
17566;SDS011;8901;52.088;5.084;2022-10-22T09:52:53;7.60;;;5.13;;
17566;SDS011;8901;52.088;5.084;2022-10-22T09:55:21;9.67;;;5.37;;
17566;SDS011;8901;52.088;5.084;2022-10-22T09:57:53;9.43;;;5.33;;
17566;SDS011;8901;52.088;5.084;2022-10-22T10:00:20;10.40;;;5.03;;
17566;SDS011;8901;52.088;5.084;2022-10-22T10:02:52;8.10;;;5.40;;
17566;SDS011;8901;52.088;5.084;2022-10-22T10:05:24;10.17;;;4.90;;
17566;SDS011;8901;52.088;5.084;2022-10-22T10:07:51;8.87;;;5.23;;
17566;SDS011;8901;52.088;5.084;2022-10-22T10:10:20;8.43;;;5.00;;
17566;SDS011;8901;52.088;5.084;2022-10-22T10:12:55;12.17;;;6.00;;
17566;SDS011;8901;52.088;5.084;2022-10-22T10:15:27;10.17;;;5.80;;
17566;SDS011;8901;52.088;5.084;2022-10-22T10:18:01;9.17;;;5.57;;
17566;SDS011;8901;52.088;5.084;2022-10-22T10:20:34;10.20;;;4.77;;
17566;SDS011;8901;52.088;5.084;2022-10-22T10:23:05;10.43;;;4.77;;
17566;SDS011;8901;52.088;5.084;2022-10-22T10:25:36;9.57;;;5.20;;
17566;SDS011;8901;52.088;5.084;2022-10-22T10:28:12;9.73;;;5.30;;
17566;SDS011;8901;52.088;5.084;2022-10-22T10:30:43;9.57;;;5.00;;
17566;SDS011;8901;52.088;5.084;2022-10-22T10:33:15;7.37;;;4.80;;
17566;SDS011;8901;52.088;5.084;2022-10-22T10:35:47;13.03;;;5.60;;
17566;SDS011;8901;52.088;5.084;2022-10-22T10:38:22;7.07;;;5.07;;
17566;SDS011;8901;52.088;5.084;2022-10-22T10:40:54;9.30;;;5.67;;
17566;SDS011;8901;52.088;5.084;2022-10-22T10:43:27;7.70;;;5.43;;
17566;SDS011;8901;52.088;5.084;2022-10-22T10:45:57;9.20;;;5.40;;
17566;SDS011;8901;52.088;5.084;2022-10-22T10:48:32;10.57;;;5.53;;
17566;SDS011;8901;52.088;5.084;2022-10-22T10:51:03;10.03;;;5.67;;
17566;SDS011;8901;52.088;5.084;2022-10-22T10:53:35;10.57;;;5.03;;
17566;SDS011;8901;52.088;5.084;2022-10-22T10:56:21;7.87;;;5.47;;
17566;SDS011;8901;52.088;5.084;2022-10-22T10:58:53;10.63;;;5.73;;
17566;SDS011;8901;52.088;5.084;2022-10-22T11:01:23;8.47;;;5.40;;
17566;SDS011;8901;52.088;5.084;2022-10-22T11:03:56;7.40;;;5.03;;
17566;SDS011;8901;52.088;5.084;2022-10-22T11:06:26;9.73;;;6.53;;
17566;SDS011;8901;52.088;5.084;2022-10-22T11:08:57;10.70;;;5.60;;
17566;SDS011;8901;52.088;5.084;2022-10-22T11:11:26;11.10;;;5.07;;
17566;SDS011;8901;52.088;5.084;2022-10-22T11:13:58;12.50;;;6.03;;
17566;SDS011;8901;52.088;5.084;2022-10-22T11:19:15;6.67;;;5.07;;
17566;SDS011;8901;52.088;5.084;2022-10-22T11:21:46;8.40;;;5.40;;
17566;SDS011;8901;52.088;5.084;2022-10-22T11:24:18;12.80;;;5.67;;
17566;SDS011;8901;52.088;5.084;2022-10-22T11:26:48;9.47;;;5.90;;
17566;SDS011;8901;52.088;5.084;2022-10-22T11:29:20;8.13;;;5.73;;
17566;SDS011;8901;52.088;5.084;2022-10-22T11:31:48;9.20;;;5.60;;
17566;SDS011;8901;52.088;5.084;2022-10-22T11:34:17;10.57;;;5.60;;
17566;SDS011;8901;52.088;5.084;2022-10-22T11:36:46;9.90;;;6.63;;
17566;SDS011;8901;52.088;5.084;2022-10-22T11:42:02;10.13;;;5.60;;
17566;SDS011;8901;52.088;5.084;2022-10-22T11:47:22;12.00;;;5.73;;
17566;SDS011;8901;52.088;5.084;2022-10-22T11:49:57;13.60;;;6.90;;
17566;SDS011;8901;52.088;5.084;2022-10-22T11:52:26;17.07;;;6.23;;
17566;SDS011;8901;52.088;5.084;2022-10-22T11:57:59;12.63;;;6.50;;
17566;SDS011;8901;52.088;5.084;2022-10-22T12:00:34;15.50;;;6.43;;
17566;SDS011;8901;52.088;5.084;2022-10-22T12:03:15;9.83;;;6.17;;
17566;SDS011;8901;52.088;5.084;2022-10-22T12:05:43;9.80;;;6.20;;
17566;SDS011;8901;52.088;5.084;2022-10-22T12:08:21;8.60;;;6.97;;
17566;SDS011;8901;52.088;5.084;2022-10-22T12:10:59;11.90;;;6.60;;
17566;SDS011;8901;52.088;5.084;2022-10-22T12:13:32;8.97;;;5.87;;
17566;SDS011;8901;52.088;5.084;2022-10-22T12:16:01;11.90;;;7.20;;
17566;SDS011;8901;52.088;5.084;2022-10-22T12:18:34;9.33;;;5.80;;
17566;SDS011;8901;52.088;5.084;2022-10-22T12:21:07;12.07;;;6.03;;
17566;SDS011;8901;52.088;5.084;2022-10-22T12:23:36;13.63;;;6.40;;
17566;SDS011;8901;52.088;5.084;2022-10-22T12:26:04;13.90;;;6.83;;
17566;SDS011;8901;52.088;5.084;2022-10-22T12:28:36;13.83;;;7.00;;
17566;SDS011;8901;52.088;5.084;2022-10-22T12:33:59;11.90;;;6.70;;
17566;SDS011;8901;52.088;5.084;2022-10-22T12:36:28;11.47;;;6.70;;
17566;SDS011;8901;52.088;5.084;2022-10-22T12:39:03;13.40;;;6.40;;
17566;SDS011;8901;52.088;5.084;2022-10-22T12:41:30;11.33;;;6.80;;
17566;SDS011;8901;52.088;5.084;2022-10-22T12:44:00;13.30;;;7.57;;
17566;SDS011;8901;52.088;5.084;2022-10-22T12:46:35;15.23;;;6.57;;
17566;SDS011;8901;52.088;5.084;2022-10-22T12:52:01;11.10;;;6.80;;
17566;SDS011;8901;52.088;5.084;2022-10-22T12:54:31;13.97;;;7.03;;
17566;SDS011;8901;52.088;5.084;2022-10-22T12:57:17;11.33;;;6.80;;
17566;SDS011;8901;52.088;5.084;2022-10-22T13:00:01;11.40;;;7.43;;
17566;SDS011;8901;52.088;5.084;2022-10-22T13:02:30;13.67;;;7.40;;
17566;SDS011;8901;52.088;5.084;2022-10-22T13:08:03;12.60;;;7.80;;
17566;SDS011;8901;52.088;5.084;2022-10-22T13:16:35;10.67;;;8.20;;
17566;SDS011;8901;52.088;5.084;2022-10-22T13:24:54;11.53;;;7.37;;
17566;SDS011;8901;52.088;5.084;2022-10-22T13:39:05;14.90;;;8.93;;
17566;SDS011;8901;52.088;5.084;2022-10-22T13:41:48;12.67;;;8.47;;
17566;SDS011;8901;52.088;5.084;2022-10-22T13:44:26;14.20;;;8.07;;
17566;SDS011;8901;52.088;5.084;2022-10-22T13:49:49;13.23;;;8.57;;
17566;SDS011;8901;52.088;5.084;2022-10-22T13:52:24;15.60;;;8.10;;
17566;SDS011;8901;52.088;5.084;2022-10-22T13:57:46;16.90;;;8.80;;
17566;SDS011;8901;52.088;5.084;2022-10-22T14:00:30;14.17;;;8.97;;
17566;SDS011;8901;52.088;5.084;2022-10-22T14:06:16;15.70;;;8.30;;
17566;SDS011;8901;52.088;5.084;2022-10-22T14:08:55;14.70;;;8.77;;
17566;SDS011;8901;52.088;5.084;2022-10-22T14:11:41;13.67;;;7.50;;
17566;SDS011;8901;52.088;5.084;2022-10-22T14:14:15;20.73;;;8.80;;
17566;SDS011;8901;52.088;5.084;2022-10-22T14:16:57;10.97;;;8.03;;
17566;SDS011;8901;52.088;5.084;2022-10-22T14:22:30;15.00;;;8.30;;
17566;SDS011;8901;52.088;5.084;2022-10-22T14:25:00;14.57;;;8.23;;
17566;SDS011;8901;52.088;5.084;2022-10-22T14:27:34;15.50;;;7.80;;
17566;SDS011;8901;52.088;5.084;2022-10-22T14:30:13;11.10;;;7.20;;
17566;SDS011;8901;52.088;5.084;2022-10-22T14:38:07;10.20;;;7.03;;
17566;SDS011;8901;52.088;5.084;2022-10-22T14:40:44;11.87;;;7.53;;
17566;SDS011;8901;52.088;5.084;2022-10-22T14:43:19;10.87;;;7.57;;
17566;SDS011;8901;52.088;5.084;2022-10-22T14:45:54;10.87;;;7.23;;
17566;SDS011;8901;52.088;5.084;2022-10-22T14:48:30;17.50;;;7.97;;
17566;SDS011;8901;52.088;5.084;2022-10-22T14:51:02;13.13;;;7.80;;
17566;SDS011;8901;52.088;5.084;2022-10-22T14:53:31;13.60;;;7.53;;
17566;SDS011;8901;52.088;5.084;2022-10-22T14:56:01;10.83;;;7.50;;
17566;SDS011;8901;52.088;5.084;2022-10-22T14:58:32;10.60;;;8.20;;
17566;SDS011;8901;52.088;5.084;2022-10-22T15:01:04;11.03;;;6.70;;
17566;SDS011;8901;52.088;5.084;2022-10-22T15:06:53;16.80;;;8.13;;
17566;SDS011;8901;52.088;5.084;2022-10-22T15:09:34;14.20;;;7.73;;
17566;SDS011;8901;52.088;5.084;2022-10-22T15:12:03;11.47;;;7.80;;
17566;SDS011;8901;52.088;5.084;2022-10-22T15:14:32;13.50;;;7.07;;
17566;SDS011;8901;52.088;5.084;2022-10-22T15:17:01;14.10;;;7.43;;
17566;SDS011;8901;52.088;5.084;2022-10-22T15:19:31;13.83;;;7.87;;
17566;SDS011;8901;52.088;5.084;2022-10-22T15:22:03;15.80;;;8.97;;
17566;SDS011;8901;52.088;5.084;2022-10-22T15:24:32;16.77;;;7.80;;
17566;SDS011;8901;52.088;5.084;2022-10-22T15:27:15;11.43;;;7.30;;
17566;SDS011;8901;52.088;5.084;2022-10-22T15:29:55;12.10;;;7.27;;
17566;SDS011;8901;52.088;5.084;2022-10-22T15:32:30;8.90;;;6.40;;
17566;SDS011;8901;52.088;5.084;2022-10-22T15:35:01;10.50;;;7.07;;
17566;SDS011;8901;52.088;5.084;2022-10-22T15:37:30;11.77;;;7.67;;
17566;SDS011;8901;52.088;5.084;2022-10-22T15:42:41;9.50;;;6.77;;
17566;SDS011;8901;52.088;5.084;2022-10-22T15:45:10;13.67;;;6.83;;
17566;SDS011;8901;52.088;5.084;2022-10-22T15:47:39;10.20;;;6.80;;
17566;SDS011;8901;52.088;5.084;2022-10-22T15:50:07;13.53;;;7.60;;
17566;SDS011;8901;52.088;5.084;2022-10-22T15:52:34;9.43;;;6.83;;
17566;SDS011;8901;52.088;5.084;2022-10-22T15:55:01;10.33;;;6.80;;
17566;SDS011;8901;52.088;5.084;2022-10-22T15:57:31;11.33;;;7.33;;
17566;SDS011;8901;52.088;5.084;2022-10-22T15:59:58;11.70;;;7.30;;
17566;SDS011;8901;52.088;5.084;2022-10-22T16:02:25;10.07;;;7.17;;
17566;SDS011;8901;52.088;5.084;2022-10-22T16:04:53;14.60;;;7.00;;
17566;SDS011;8901;52.088;5.084;2022-10-22T16:07:21;9.97;;;7.17;;
17566;SDS011;8901;52.088;5.084;2022-10-22T16:09:48;13.20;;;7.57;;
17566;SDS011;8901;52.088;5.084;2022-10-22T16:12:15;11.53;;;7.50;;
17566;SDS011;8901;52.088;5.084;2022-10-22T16:14:42;15.13;;;7.90;;
17566;SDS011;8901;52.088;5.084;2022-10-22T16:17:09;11.57;;;7.60;;
17566;SDS011;8901;52.088;5.084;2022-10-22T16:19:37;10.40;;;7.60;;
17566;SDS011;8901;52.088;5.084;2022-10-22T16:22:05;12.90;;;8.13;;
17566;SDS011;8901;52.088;5.084;2022-10-22T16:24:34;16.50;;;7.80;;
17566;SDS011;8901;52.088;5.084;2022-10-22T16:27:04;13.53;;;7.67;;
17566;SDS011;8901;52.088;5.084;2022-10-22T16:29:31;11.10;;;7.40;;
17566;SDS011;8901;52.088;5.084;2022-10-22T16:31:59;9.80;;;7.20;;
17566;SDS011;8901;52.088;5.084;2022-10-22T16:34:27;15.13;;;8.07;;
17566;SDS011;8901;52.088;5.084;2022-10-22T16:36:54;16.87;;;7.67;;
17566;SDS011;8901;52.088;5.084;2022-10-22T16:39:22;15.03;;;7.30;;
17566;SDS011;8901;52.088;5.084;2022-10-22T16:41:49;11.40;;;7.27;;
17566;SDS011;8901;52.088;5.084;2022-10-22T16:44:17;11.43;;;7.33;;
17566;SDS011;8901;52.088;5.084;2022-10-22T16:46:44;13.67;;;7.17;;
17566;SDS011;8901;52.088;5.084;2022-10-22T16:49:11;11.27;;;6.73;;
17566;SDS011;8901;52.088;5.084;2022-10-22T16:51:38;11.57;;;7.27;;
17566;SDS011;8901;52.088;5.084;2022-10-22T16:54:05;9.50;;;6.90;;